Time;durP1;ratioP1;P1;durP2;ratioP2;P2;SDS_P1;SDS_P2;PMS_P1;PMS_P2;Temp;Humidity;BMP_temperature;BMP_pressure;BME280_temperature;BME280_humidity;BME280_pressure;Samples;Min_cycle;Max_cycle;Signal;HPM_P1;HPM_P2
2023/02/08 00:01:19;;;;;;;6.20;3.78;;;3.50;95.30;;;;;;6220308;23;20004;-78
2023/02/08 00:03:46;;;;;;;6.03;3.60;;;3.40;95.60;;;;;;6219254;23;20005;-78
2023/02/08 00:06:12;;;;;;;5.80;3.28;;;3.40;95.80;;;;;;6219284;23;20774;-78
2023/02/08 00:08:38;;;;;;;5.25;3.47;;;3.50;96.20;;;;;;6220563;23;20005;-78
2023/02/08 00:11:04;;;;;;;7.50;3.80;;;3.40;95.80;;;;;;6220491;23;20012;-79
2023/02/08 00:13:31;;;;;;;6.65;3.58;;;3.40;95.40;;;;;;6219884;23;20000;-78
2023/02/08 00:15:56;;;;;;;7.03;4.13;;;3.40;95.80;;;;;;6221336;23;20001;-78
2023/02/08 00:18:22;;;;;;;7.10;4.03;;;3.40;96.00;;;;;;6221575;23;20055;-78
2023/02/08 00:20:49;;;;;;;5.95;3.80;;;3.30;95.60;;;;;;6220962;23;20394;-78
2023/02/08 00:23:15;;;;;;;5.53;3.60;;;3.30;95.90;;;;;;6221382;23;20004;-76
2023/02/08 00:25:41;;;;;;;6.30;3.85;;;3.30;96.70;;;;;;6219842;23;20076;-76
2023/02/08 00:28:12;;;;;;;5.90;3.85;;;3.30;96.70;;;;;;6221242;23;20000;-76
2023/02/08 00:30:37;;;;;;;6.60;3.97;;;3.40;96.20;;;;;;6221270;23;20001;-76
2023/02/08 00:33:03;;;;;;;7.30;4.00;;;3.30;95.80;;;;;;6219400;23;20008;-75
2023/02/08 00:35:29;;;;;;;7.38;4.00;;;3.20;96.10;;;;;;6220797;23;20001;-76
2023/02/08 00:37:56;;;;;;;6.32;4.05;;;3.30;96.90;;;;;;6219457;23;20504;-76
2023/02/08 00:40:22;;;;;;;5.95;4.10;;;3.20;96.00;;;;;;6221215;23;20012;-76
2023/02/08 00:42:47;;;;;;;6.72;4.13;;;3.20;95.40;;;;;;6221086;23;20438;-76
2023/02/08 00:45:13;;;;;;;6.82;3.72;;;3.20;96.50;;;;;;6221082;23;20001;-76
2023/02/08 00:47:39;;;;;;;6.75;4.35;;;3.10;96.70;;;;;;6220884;23;20473;-76
2023/02/08 00:50:05;;;;;;;6.53;3.95;;;3.20;96.80;;;;;;6220755;23;20426;-76
2023/02/08 00:52:31;;;;;;;5.75;4.07;;;3.10;97.00;;;;;;6220903;23;20007;-76
2023/02/08 00:54:56;;;;;;;5.95;3.85;;;3.10;96.30;;;;;;6221047;23;20024;-76
2023/02/08 00:57:22;;;;;;;6.00;3.70;;;3.10;96.70;;;;;;6193996;23;20079;-76
2023/02/08 00:59:47;;;;;;;6.07;4.28;;;3.10;97.30;;;;;;6220948;23;20046;-76
2023/02/08 01:02:13;;;;;;;6.65;4.30;;;3.10;97.30;;;;;;6220741;23;20032;-76
2023/02/08 01:04:39;;;;;;;6.07;3.70;;;3.10;97.00;;;;;;6220583;23;20418;-76
2023/02/08 01:07:05;;;;;;;6.75;4.07;;;3.10;97.00;;;;;;6220638;23;20000;-76
2023/02/08 01:09:31;;;;;;;5.38;3.55;;;3.10;96.20;;;;;;6220986;23;20402;-76
2023/02/08 01:11:57;;;;;;;6.25;3.97;;;3.00;96.60;;;;;;6220773;23;20426;-76
2023/02/08 01:14:23;;;;;;;6.50;4.25;;;3.00;96.80;;;;;;6220776;23;20001;-76
2023/02/08 01:16:49;;;;;;;7.85;4.68;;;2.90;96.70;;;;;;6220627;23;20000;-76
2023/02/08 01:19:15;;;;;;;6.35;4.00;;;2.90;97.80;;;;;;6220841;23;20340;-76
2023/02/08 01:21:41;;;;;;;8.40;4.45;;;2.90;97.60;;;;;;6220427;23;20004;-76
2023/02/08 01:24:07;;;;;;;7.38;4.28;;;2.90;97.10;;;;;;6194332;23;20426;-76
2023/02/08 01:26:33;;;;;;;5.63;3.40;;;2.90;97.10;;;;;;6220660;23;20452;-75
2023/02/08 01:29:00;;;;;;;6.35;4.07;;;2.90;97.50;;;;;;6220780;23;20000;-75
2023/02/08 01:31:31;;;;;;;5.68;3.90;;;2.90;97.60;;;;;;6193778;23;20028;-76
2023/02/08 01:33:58;;;;;;;5.93;3.60;;;2.90;97.60;;;;;;6220629;23;20076;-76
2023/02/08 01:36:25;;;;;;;5.18;3.38;;;2.90;97.70;;;;;;6220029;23;21237;-77
2023/02/08 01:38:51;;;;;;;6.72;3.70;;;3.00;98.00;;;;;;6201840;23;20039;-77
2023/02/08 01:41:29;;;;;;;6.97;3.80;;;3.00;98.00;;;;;;6220273;23;20042;-76
2023/02/08 01:44:40;;;;;;;6.45;3.83;;;3.00;97.80;;;;;;6218860;23;20009;-76
2023/02/08 01:47:05;;;;;;;6.43;3.72;;;2.90;96.50;;;;;;6189868;23;20012;-77
2023/02/08 01:49:35;;;;;;;8.50;4.22;;;2.80;97.20;;;;;;6219922;23;19997;-77
2023/02/08 01:52:13;;;;;;;6.47;3.83;;;2.80;97.80;;;;;;6220219;23;20001;-77
2023/02/08 01:54:54;;;;;;;7.05;3.67;;;2.70;98.00;;;;;;6220487;23;20000;-76
2023/02/08 01:57:21;;;;;;;6.60;3.90;;;2.80;97.80;;;;;;6218880;23;20084;-77
2023/02/08 02:00:11;;;;;;;6.28;3.90;;;2.80;98.90;;;;;;6220457;23;20001;-76
2023/02/08 02:02:38;;;;;;;5.25;3.42;;;2.80;97.90;;;;;;6219915;23;20451;-76
2023/02/08 02:05:04;;;;;;;6.03;3.53;;;2.80;98.20;;;;;;6218797;23;20005;-77
2023/02/08 02:07:30;;;;;;;5.00;3.40;;;2.80;98.00;;;;;;6220278;23;20005;-77
2023/02/08 02:10:03;;;;;;;5.00;3.10;;;2.80;97.70;;;;;;6219992;23;20036;-76
2023/02/08 02:12:31;;;;;;;6.18;3.47;;;2.80;97.40;;;;;;6218742;23;20031;-77
2023/02/08 02:14:58;;;;;;;7.32;3.70;;;2.80;97.80;;;;;;6220112;23;19997;-77
2023/02/08 02:17:23;;;;;;;5.80;3.60;;;2.80;98.20;;;;;;6220236;23;20047;-76
2023/02/08 02:20:19;;;;;;;6.90;3.75;;;2.70;97.70;;;;;;6220018;23;20008;-76
2023/02/08 02:23:12;;;;;;;5.82;3.38;;;2.60;97.60;;;;;;6220448;23;20000;-76
2023/02/08 02:25:40;;;;;;;4.82;3.17;;;2.70;97.60;;;;;;6220284;23;20012;-76
2023/02/08 02:28:23;;;;;;;6.45;3.85;;;2.60;97.40;;;;;;6220339;23;20422;-76
2023/02/08 02:31:26;;;;;;;6.85;3.50;;;2.60;98.30;;;;;;6220261;23;20001;-76
2023/02/08 02:33:55;;;;;;;6.03;3.25;;;2.60;98.10;;;;;;6220130;23;20008;-76
2023/02/08 02:36:49;;;;;;;5.00;3.33;;;2.60;98.20;;;;;;6219931;23;20005;-76
2023/02/08 02:39:19;;;;;;;;;;;2.60;98.70;;;;;;6220512;23;20074;-76
2023/02/08 02:45:24;;;;;;;4.85;3.10;;;2.60;97.90;;;;;;6219887;23;20338;-76
2023/02/08 02:48:09;;;;;;;6.28;3.83;;;2.60;98.70;;;;;;6220153;23;20005;-76
2023/02/08 02:50:40;;;;;;;4.70;2.83;;;2.60;98.80;;;;;;6221802;23;20080;-76
2023/02/08 02:53:17;;;;;;;5.10;2.75;;;2.60;98.70;;;;;;6221981;23;20024;-77
2023/02/08 02:55:52;;;;;;;5.38;3.22;;;2.60;98.60;;;;;;6222019;23;20001;-76
2023/02/08 02:58:20;;;;;;;5.65;3.22;;;2.60;99.10;;;;;;6195021;23;20033;-76
2023/02/08 03:00:52;;;;;;;4.55;3.05;;;2.60;99.00;;;;;;6222010;23;20001;-76
2023/02/08 03:03:22;;;;;;;4.20;2.83;;;2.50;98.40;;;;;;6194982;23;20043;-76
2023/02/08 03:05:50;;;;;;;5.95;3.03;;;2.60;99.40;;;;;;6221720;23;20084;-76
2023/02/08 03:08:45;;;;;;;5.15;2.75;;;2.60;98.70;;;;;;6221875;23;20011;-76
2023/02/08 03:11:10;;;;;;;;;;;2.50;98.40;;;;;;6222812;23;20005;-76
2023/02/08 03:14:01;;;;;;;3.85;2.58;;;2.50;97.60;;;;;;6195698;23;19907;-77
2023/02/08 03:16:42;;;;;;;4.93;3.15;;;2.40;98.50;;;;;;6221400;23;20028;-75
2023/02/08 03:19:21;;;;;;;4.75;2.60;;;2.40;98.80;;;;;;6221897;23;20418;-76
2023/02/08 03:22:19;;;;;;;4.18;2.65;;;2.50;99.60;;;;;;6221681;23;20000;-76
2023/02/08 03:24:47;;;;;;;4.53;2.80;;;2.50;98.40;;;;;;6184271;23;20917;-75
2023/02/08 03:27:36;;;;;;;4.68;3.30;;;2.50;99.10;;;;;;6194922;23;20005;-76
2023/02/08 03:30:44;;;;;;;4.75;3.10;;;2.40;99.50;;;;;;6201617;23;20015;-78
2023/02/08 03:33:21;;;;;;;5.53;2.80;;;2.40;98.70;;;;;;6142036;23;20027;-76
2023/02/08 03:36:02;;;;;;;6.05;3.63;;;2.40;99.50;;;;;;6221439;23;20051;-76
2023/02/08 03:38:44;;;;;;;4.93;3.00;;;2.40;98.90;;;;;;6221523;23;20017;-76
2023/02/08 03:41:15;;;;;;;5.00;3.05;;;2.30;99.70;;;;;;6194960;23;20008;-77
2023/02/08 03:43:50;;;;;;;4.68;2.70;;;2.40;99.90;;;;;;6221626;23;20001;-77
2023/02/08 03:46:27;;;;;;;4.15;2.70;;;2.40;99.50;;;;;;6221791;23;20028;-77
2023/02/08 03:49:02;;;;;;;4.90;3.13;;;2.30;99.00;;;;;;6221661;23;20086;-76
2023/02/08 03:51:29;;;;;;;4.15;3.03;;;2.30;98.80;;;;;;6221237;23;20055;-76
2023/02/08 03:54:00;;;;;;;5.40;3.35;;;2.20;99.90;;;;;;6221548;23;20031;-76
2023/02/08 03:56:45;;;;;;;5.13;3.47;;;2.20;99.90;;;;;;6221509;23;20020;-76
2023/02/08 03:59:26;;;;;;;5.22;3.30;;;2.20;99.50;;;;;;6194716;23;20027;-76
2023/02/08 04:02:00;;;;;;;6.15;3.15;;;2.20;99.90;;;;;;6221076;23;20008;-75
2023/02/08 04:04:31;;;;;;;5.75;3.15;;;2.30;99.90;;;;;;6221023;23;20063;-77
2023/02/08 04:06:57;;;;;;;5.55;3.53;;;2.30;99.90;;;;;;6221333;23;20429;-77
2023/02/08 04:09:23;;;;;;;4.50;2.95;;;2.30;99.90;;;;;;6194702;23;20031;-76
2023/02/08 04:11:48;;;;;;;5.78;3.22;;;2.30;99.90;;;;;;6194722;23;20491;-77
2023/02/08 04:14:14;;;;;;;5.35;3.05;;;2.30;99.80;;;;;;6221272;23;20007;-76
2023/02/08 04:16:39;;;;;;;5.28;3.28;;;2.20;99.90;;;;;;6220909;23;20004;-77
2023/02/08 04:19:05;;;;;;;5.45;3.15;;;2.20;99.80;;;;;;6221059;23;20024;-77
2023/02/08 04:21:32;;;;;;;6.03;3.22;;;2.20;99.60;;;;;;6193912;23;20448;-77
2023/02/08 04:23:57;;;;;;;4.82;3.15;;;2.10;99.60;;;;;;6220912;23;20001;-76
2023/02/08 04:26:23;;;;;;;4.78;3.30;;;2.10;99.90;;;;;;6221070;23;20007;-76
2023/02/08 04:28:49;;;;;;;5.88;3.58;;;2.10;99.90;;;;;;6194355;23;20043;-76
2023/02/08 04:31:15;;;;;;;6.90;3.63;;;2.10;99.90;;;;;;6220946;23;20005;-76
2023/02/08 04:33:40;;;;;;;4.00;2.72;;;2.10;99.90;;;;;;6220980;23;20035;-77
2023/02/08 04:36:06;;;;;;;4.15;3.13;;;2.10;99.90;;;;;;6220785;23;20001;-77
2023/02/08 04:38:32;;;;;;;5.68;3.15;;;2.00;99.90;;;;;;6220963;23;20093;-77
2023/02/08 04:40:57;;;;;;;5.63;3.40;;;2.10;99.90;;;;;;6220773;23;20062;-76
2023/02/08 04:43:23;;;;;;;5.70;3.45;;;2.10;99.90;;;;;;6220975;23;20001;-77
2023/02/08 04:45:50;;;;;;;6.47;4.07;;;2.00;99.90;;;;;;6220909;23;20060;-77
2023/02/08 04:48:16;;;;;;;5.78;3.80;;;2.10;99.90;;;;;;6220633;23;20389;-77
2023/02/08 04:50:42;;;;;;;6.65;3.33;;;2.00;99.90;;;;;;6220637;23;20005;-76
2023/02/08 04:53:07;;;;;;;5.22;3.38;;;2.00;99.90;;;;;;6220744;23;20008;-77
2023/02/08 04:55:33;;;;;;;4.88;3.50;;;2.00;99.90;;;;;;6220804;23;20032;-77
2023/02/08 04:57:59;;;;;;;6.82;3.40;;;1.90;99.90;;;;;;6220824;23;19996;-77
2023/02/08 05:00:25;;;;;;;5.85;3.88;;;1.90;99.90;;;;;;6193874;23;20011;-77
2023/02/08 05:02:55;;;;;;;7.00;3.65;;;2.00;99.90;;;;;;6220412;23;20008;-77
2023/02/08 05:05:22;;;;;;;8.05;4.32;;;2.00;99.90;;;;;;6220476;23;20065;-76
2023/02/08 05:07:48;;;;;;;4.93;3.50;;;2.00;99.90;;;;;;6220489;23;20008;-77
2023/02/08 05:10:14;;;;;;;7.72;4.22;;;2.00;99.90;;;;;;6194073;23;20009;-77
2023/02/08 05:12:40;;;;;;;5.78;3.15;;;1.90;99.90;;;;;;6193963;23;20004;-77
2023/02/08 05:15:05;;;;;;;4.78;3.10;;;1.90;99.90;;;;;;6220743;23;20025;-77
2023/02/08 05:17:31;;;;;;;6.72;3.33;;;2.00;99.90;;;;;;6220429;23;20001;-77
2023/02/08 05:19:57;;;;;;;5.57;3.42;;;2.00;99.90;;;;;;6220502;23;20001;-77
2023/02/08 05:22:22;;;;;;;4.75;3.13;;;2.00;99.90;;;;;;6220714;23;20008;-76
2023/02/08 05:24:48;;;;;;;4.57;3.05;;;1.90;99.90;;;;;;6220670;23;20008;-76
2023/02/08 05:27:14;;;;;;;5.20;3.20;;;1.90;99.90;;;;;;6193877;23;20036;-76
2023/02/08 05:29:39;;;;;;;5.78;3.28;;;1.80;99.90;;;;;;6220701;23;20001;-76
2023/02/08 05:32:05;;;;;;;5.88;3.50;;;1.90;99.90;;;;;;6220532;23;20084;-76
2023/02/08 05:34:31;;;;;;;5.13;3.03;;;1.90;99.90;;;;;;6194026;23;20004;-76
2023/02/08 05:36:56;;;;;;;4.75;3.30;;;1.80;99.90;;;;;;6220538;23;20424;-76
2023/02/08 05:39:22;;;;;;;5.60;3.42;;;1.90;99.90;;;;;;6220465;23;20099;-76
2023/02/08 05:41:47;;;;;;;5.75;3.30;;;1.90;99.90;;;;;;6194274;23;20051;-76
2023/02/08 05:44:13;;;;;;;5.88;3.08;;;1.90;99.90;;;;;;6193749;23;20011;-77
2023/02/08 05:46:39;;;;;;;5.05;3.20;;;1.80;99.90;;;;;;6220347;23;20404;-77
2023/02/08 05:49:04;;;;;;;5.45;3.20;;;1.90;99.90;;;;;;6220517;23;19997;-76
2023/02/08 05:51:30;;;;;;;5.78;3.17;;;1.90;99.90;;;;;;6219933;23;20012;-76
2023/02/08 05:53:56;;;;;;;5.57;3.20;;;1.90;99.90;;;;;;6220627;23;20062;-76
2023/02/08 05:56:21;;;;;;;5.68;3.60;;;1.80;99.90;;;;;;6220042;23;20011;-76
2023/02/08 05:58:47;;;;;;;6.70;3.75;;;1.90;99.90;;;;;;6220063;23;20032;-76
2023/02/08 06:01:13;;;;;;;6.05;3.35;;;1.80;99.90;;;;;;6220211;23;20004;-76
2023/02/08 06:03:40;;;;;;;5.10;3.00;;;1.70;99.90;;;;;;6193484;23;20147;-77
2023/02/08 06:06:06;;;;;;;6.38;3.58;;;1.70;99.90;;;;;;6219528;23;20031;-78
2023/02/08 06:08:32;;;;;;;5.80;3.40;;;1.70;99.90;;;;;;6220241;23;20005;-78
2023/02/08 06:10:58;;;;;;;5.63;3.47;;;1.80;99.90;;;;;;6219908;23;20062;-79
2023/02/08 06:13:23;;;;;;;5.80;3.33;;;1.80;99.90;;;;;;6219925;23;20082;-78
2023/02/08 06:15:49;;;;;;;5.10;3.55;;;1.80;99.90;;;;;;6220065;23;20000;-78
2023/02/08 06:18:15;;;;;;;6.13;3.20;;;1.70;99.90;;;;;;6219721;23;20066;-78
2023/02/08 06:20:41;;;;;;;6.75;3.53;;;1.80;99.90;;;;;;6219335;23;20004;-78
2023/02/08 06:23:06;;;;;;;5.88;3.92;;;1.80;99.90;;;;;;6220198;23;20062;-78
2023/02/08 06:25:32;;;;;;;4.30;2.90;;;1.80;99.90;;;;;;6222306;23;20083;-77
2023/02/08 06:27:58;;;;;;;6.00;3.60;;;1.80;99.90;;;;;;6195791;23;20337;-78
2023/02/08 06:30:24;;;;;;;4.88;3.50;;;1.70;99.90;;;;;;6221969;23;20009;-77
2023/02/08 06:32:49;;;;;;;5.72;3.67;;;1.80;99.90;;;;;;6194746;23;20011;-77
2023/02/08 06:35:15;;;;;;;5.18;2.80;;;1.70;99.90;;;;;;6221676;23;20000;-78
2023/02/08 06:37:41;;;;;;;5.88;3.53;;;1.70;99.90;;;;;;6221559;23;20028;-77
2023/02/08 06:40:07;;;;;;;7.03;3.60;;;1.60;99.90;;;;;;6221552;23;20027;-76
2023/02/08 06:42:33;;;;;;;7.25;4.05;;;1.60;99.90;;;;;;6222288;23;20082;-77
2023/02/08 06:44:59;;;;;;;7.03;3.65;;;1.60;99.90;;;;;;6221749;23;20000;-77
2023/02/08 06:47:25;;;;;;;5.97;3.90;;;1.70;99.90;;;;;;6222111;23;20000;-76
2023/02/08 06:49:51;;;;;;;6.32;3.90;;;1.70;99.90;;;;;;6221501;23;20000;-78
2023/02/08 06:52:18;;;;;;;5.82;3.35;;;1.70;99.90;;;;;;6221936;23;19997;-78
2023/02/08 06:54:44;;;;;;;5.88;3.60;;;1.70;99.90;;;;;;6195138;23;20075;-77
2023/02/08 06:57:11;;;;;;;6.50;3.42;;;1.60;99.90;;;;;;6222002;23;19997;-78
2023/02/08 06:59:38;;;;;;;5.72;3.55;;;1.60;99.90;;;;;;6222114;23;20768;-78
2023/02/08 07:02:04;;;;;;;6.00;3.15;;;1.60;99.90;;;;;;6221916;23;20060;-80
2023/02/08 07:04:29;;;;;;;5.82;3.45;;;1.60;99.90;;;;;;6221674;23;19997;-77
2023/02/08 07:06:55;;;;;;;5.82;3.20;;;1.60;99.90;;;;;;6221840;23;20062;-77
2023/02/08 07:09:21;;;;;;;6.65;3.90;;;1.60;99.90;;;;;;6194612;23;20039;-76
2023/02/08 07:11:46;;;;;;;5.75;3.22;;;1.50;99.90;;;;;;6221441;23;20463;-77
2023/02/08 07:14:13;;;;;;;5.63;3.33;;;1.40;99.90;;;;;;6194007;23;20036;-77
2023/02/08 07:16:38;;;;;;;6.07;3.25;;;1.40;99.90;;;;;;6194569;23;20330;-77
2023/02/08 07:19:04;;;;;;;5.88;3.53;;;1.50;99.90;;;;;;6194639;23;20019;-77
2023/02/08 07:21:30;;;;;;;6.65;3.72;;;1.50;99.90;;;;;;6220760;23;19997;-77
2023/02/08 07:23:55;;;;;;;5.57;3.30;;;1.50;99.90;;;;;;6221511;23;20027;-76
2023/02/08 07:26:21;;;;;;;5.55;3.28;;;1.50;99.90;;;;;;6221678;23;20028;-76
2023/02/08 07:28:47;;;;;;;5.93;3.50;;;1.60;99.90;;;;;;6221402;23;19997;-77
2023/02/08 07:31:15;;;;;;;5.78;3.75;;;1.60;99.90;;;;;;6220624;23;20005;-75
2023/02/08 07:33:41;;;;;;;5.78;3.50;;;1.60;99.90;;;;;;6221498;23;20001;-76
2023/02/08 07:36:08;;;;;;;5.13;3.13;;;1.60;99.90;;;;;;6220885;23;20004;-76
2023/02/08 07:38:34;;;;;;;5.80;3.72;;;1.60;99.90;;;;;;6199192;23;20074;-76
2023/02/08 07:41:05;;;;;;;6.82;4.13;;;1.60;99.90;;;;;;6220866;23;20326;-76
2023/02/08 07:43:34;;;;;;;6.13;3.85;;;1.50;99.90;;;;;;6221107;23;20028;-78
2023/02/08 07:46:12;;;;;;;6.30;3.50;;;1.50;99.90;;;;;;6220208;23;20330;-77
2023/02/08 07:48:38;;;;;;;5.85;3.65;;;1.60;99.90;;;;;;6220169;23;20064;-76
2023/02/08 07:51:04;;;;;;;6.57;3.47;;;1.70;99.90;;;;;;6220852;23;20342;-78
2023/02/08 07:53:30;;;;;;;5.28;3.42;;;1.70;99.90;;;;;;6221580;23;20007;-77
2023/02/08 07:55:59;;;;;;;6.20;3.80;;;1.70;99.90;;;;;;6221467;23;20001;-76
2023/02/08 07:58:25;;;;;;;6.82;3.90;;;1.70;99.90;;;;;;6218360;23;20004;-77
2023/02/08 08:00:51;;;;;;;6.28;3.60;;;1.70;99.90;;;;;;6219316;23;20001;-78
2023/02/08 08:03:16;;;;;;;6.72;3.75;;;1.70;99.90;;;;;;6219131;23;20007;-75
2023/02/08 08:05:42;;;;;;;6.30;3.17;;;1.80;99.90;;;;;;6219394;23;20004;-76
2023/02/08 08:08:12;;;;;;;6.97;3.85;;;1.90;99.90;;;;;;6217643;23;20095;-76
2023/02/08 08:10:38;;;;;;;13.00;9.10;;;1.90;99.90;;;;;;6219593;23;20363;-75
2023/02/08 08:13:04;;;;;;;;;;;1.80;99.90;;;;;;6220124;23;20438;-75
2023/02/08 08:15:30;;;;;;;8.68;5.10;;;1.90;99.90;;;;;;6221242;23;19979;-75
2023/02/08 08:17:56;;;;;;;7.78;5.03;;;1.90;99.90;;;;;;6219220;23;20000;-75
2023/02/08 08:20:22;;;;;;;19.63;11.80;;;1.90;99.90;;;;;;6218690;23;20374;-74
2023/02/08 08:22:47;;;;;;;13.80;8.50;;;1.90;99.90;;;;;;6220270;23;20043;-73
2023/02/08 08:25:13;;;;;;;;;;;2.00;99.90;;;;;;6221127;23;20001;-71
2023/02/08 08:27:39;;;;;;;;;;;2.00;99.90;;;;;;6219591;23;19899;-70
2023/02/08 08:30:05;;;;;;;;;;;2.10;99.90;;;;;;6219836;23;19908;-70
2023/02/08 08:32:30;;;;;;;;;;;2.10;99.90;;;;;;6221357;23;20328;-81
2023/02/08 08:34:56;;;;;;;;;;;2.10;99.90;;;;;;6220240;23;19955;-69
2023/02/08 08:37:21;;;;;;;;;;;2.00;99.90;;;;;;6219808;23;20272;-69
2023/02/08 08:39:47;;;;;;;;;;;2.10;99.90;;;;;;6221185;23;20337;-69
2023/02/08 08:42:12;;;;;;;;;;;2.10;99.90;;;;;;6221513;23;20206;-69
2023/02/08 08:44:38;;;;;;;;;;;2.10;99.90;;;;;;6221752;23;19976;-70
2023/02/08 08:47:04;;;;;;;;;;;2.20;99.90;;;;;;6221346;23;19900;-70
2023/02/08 08:49:29;;;;;;;;;;;2.20;99.90;;;;;;6221281;23;19904;-73
2023/02/08 08:51:55;;;;;;;;;;;2.30;99.90;;;;;;6221579;23;19927;-71
2023/02/08 08:54:21;;;;;;;;;;;2.30;99.90;;;;;;6194716;23;20218;-76
2023/02/08 08:56:47;;;;;;;;;;;2.40;99.90;;;;;;6221650;23;19900;-75
2023/02/08 08:59:12;;;;;;;;;;;2.40;99.90;;;;;;6195268;23;19900;-76
2023/02/08 09:01:40;;;;;;;;;;;2.50;99.90;;;;;;6222046;23;19904;-75
2023/02/08 09:04:05;;;;;;;;;;;2.50;99.90;;;;;;6221714;23;19949;-72
2023/02/08 09:06:31;;;;;;;;;;;2.60;99.90;;;;;;6194351;23;19900;-72
2023/02/08 09:08:56;;;;;;;;;;;2.60;99.90;;;;;;6195210;23;19907;-73
2023/02/08 09:11:22;;;;;;;;;;;2.60;99.90;;;;;;6221683;23;19904;-72
2023/02/08 09:13:51;;;;;;;;;;;2.70;99.90;;;;;;6221859;23;19927;-73
2023/02/08 09:16:17;;;;;;;;;;;2.80;99.90;;;;;;6195034;23;19906;-73
2023/02/08 09:18:43;;;;;;;;;;;2.80;99.90;;;;;;6194685;23;19939;-73
2023/02/08 09:21:10;;;;;;;;;;;2.80;99.90;;;;;;6221444;23;20340;-72
2023/02/08 09:23:36;;;;;;;;;;;2.80;99.90;;;;;;6222046;23;19924;-73
2023/02/08 09:26:02;;;;;;;;;;;2.80;99.90;;;;;;6194713;23;20241;-73
2023/02/08 09:28:28;;;;;;;;;;;2.90;99.90;;;;;;6195043;23;19979;-72
2023/02/08 09:30:54;;;;;;;;;;;2.90;99.90;;;;;;6194731;23;19904;-72
2023/02/08 09:33:19;;;;;;;;;;;3.00;99.90;;;;;;6221575;23;19900;-72
2023/02/08 09:35:45;;;;;;;;;;;3.00;99.90;;;;;;6221379;23;19900;-73
2023/02/08 09:38:10;;;;;;;;;;;3.10;99.90;;;;;;6194780;23;19911;-73
2023/02/08 09:40:41;;;;;;;;;;;3.20;99.90;;;;;;6221617;23;19900;-72
2023/02/08 09:43:11;;;;;;;;;;;3.20;99.90;;;;;;6221749;23;19966;-73
2023/02/08 09:45:43;;;;;;;;;;;3.30;99.90;;;;;;6221831;23;19900;-72
2023/02/08 09:48:12;;;;;;;;;;;3.30;99.90;;;;;;6221624;23;19900;-72
2023/02/08 09:50:45;;;;;;;;;;;3.50;99.90;;;;;;6221216;23;19910;-72
2023/02/08 09:53:20;;;;;;;;;;;3.50;99.90;;;;;;6221455;23;20317;-72
2023/02/08 09:55:47;;;;;;;;;;;3.60;99.90;;;;;;6194801;23;19899;-72
2023/02/08 09:58:22;;;;;;;;;;;3.40;99.90;;;;;;6221142;23;19934;-72
2023/02/08 10:00:50;;;;;;;2.55;1.50;;;3.50;99.90;;;;;;6194618;23;20234;-72
2023/02/08 10:03:25;;;;;;;1.98;1.20;;;3.50;99.90;;;;;;6221008;23;20418;-72
2023/02/08 10:05:51;;;;;;;3.72;2.13;;;3.50;99.90;;;;;;6220580;23;20007;-72
2023/02/08 10:08:17;;;;;;;4.47;2.63;;;3.60;99.90;;;;;;6221068;23;20024;-72
2023/02/08 10:11:07;;;;;;;16.45;10.05;;;3.60;99.90;;;;;;6219306;23;20735;-72
2023/02/08 10:14:12;;;;;;;21.10;12.80;;;3.70;99.90;;;;;;6219377;23;20366;-72
2023/02/08 10:16:59;;;;;;;12.50;7.47;;;3.80;99.90;;;;;;6220614;23;20008;-73
2023/02/08 10:19:43;;;;;;;9.75;5.72;;;3.90;99.90;;;;;;6220490;23;20001;-71
2023/02/08 10:22:36;;;;;;;9.15;4.93;;;3.90;99.90;;;;;;6220856;23;20043;-72
2023/02/08 10:25:26;;;;;;;8.60;4.85;;;4.10;99.90;;;;;;6194098;23;20008;-72
2023/02/08 10:28:16;;;;;;;7.70;4.40;;;4.00;99.90;;;;;;6194208;23;20001;-73
2023/02/08 10:30:54;;;;;;;19.38;11.55;;;4.00;99.90;;;;;;6218791;23;20395;-73
2023/02/08 10:33:57;;;;;;;20.45;12.98;;;4.10;99.90;;;;;;6192769;23;20383;-72
2023/02/08 10:36:28;;;;;;;13.50;8.60;;;4.30;99.90;;;;;;6220315;23;20008;-73
2023/02/08 10:38:55;;;;;;;12.93;6.78;;;4.30;99.90;;;;;;6220712;23;20009;-73
2023/02/08 10:41:27;;;;;;;10.43;6.35;;;4.30;99.90;;;;;;6194131;23;20062;-73
2023/02/08 10:44:13;;;;;;;8.50;5.30;;;4.40;99.90;;;;;;6194185;23;20382;-73
2023/02/08 10:47:19;;;;;;;8.10;5.20;;;4.40;99.90;;;;;;6220879;23;20004;-73
2023/02/08 10:49:57;;;;;;;8.57;5.45;;;4.40;99.90;;;;;;6178431;23;20009;-73
2023/02/08 10:52:23;;;;;;;7.88;5.35;;;4.50;99.90;;;;;;6220653;23;20330;-72
2023/02/08 10:54:49;;;;;;;7.97;4.97;;;4.50;99.90;;;;;;6220328;23;20004;-72
2023/02/08 10:57:23;;;;;;;8.07;5.07;;;4.60;99.90;;;;;;6220579;23;20043;-73
2023/02/08 10:59:53;;;;;;;8.52;5.05;;;4.60;99.90;;;;;;6219819;23;20008;-73
2023/02/08 11:02:26;;;;;;;6.95;4.82;;;4.70;99.90;;;;;;6193997;23;20009;-73
2023/02/08 11:05:13;;;;;;;7.55;4.70;;;4.70;99.90;;;;;;6219501;23;20001;-72
2023/02/08 11:07:39;;;;;;;9.05;4.65;;;4.80;99.90;;;;;;6220311;23;20005;-72
2023/02/08 11:10:17;;;;;;;8.70;4.63;;;4.80;99.90;;;;;;6220698;23;20072;-72
2023/02/08 11:13:12;;;;;;;7.07;4.15;;;4.80;99.90;;;;;;6222462;23;19997;-72
2023/02/08 11:15:42;;;;;;;5.68;3.80;;;4.80;99.90;;;;;;6220740;23;20028;-73
2023/02/08 11:18:27;;;;;;;5.50;3.47;;;4.90;99.90;;;;;;6194147;23;20005;-75
2023/02/08 11:21:04;;;;;;;8.00;4.78;;;5.00;99.90;;;;;;6194863;23;20381;-73
2023/02/08 11:23:39;;;;;;;7.25;4.65;;;5.00;99.90;;;;;;6222125;23;20028;-74
2023/02/08 11:26:33;;;;;;;7.35;4.80;;;5.10;99.90;;;;;;6221508;23;20054;-73
2023/02/08 11:29:13;;;;;;;7.18;4.18;;;5.10;99.90;;;;;;6221562;23;20004;-73
2023/02/08 11:31:55;;;;;;;6.93;4.30;;;5.20;99.90;;;;;;6194335;23;20011;-72
2023/02/08 11:34:29;;;;;;;6.85;3.80;;;5.20;99.90;;;;;;6221603;23;20000;-71
2023/02/08 11:36:56;;;;;;;7.65;4.03;;;5.20;99.90;;;;;;6221817;23;20000;-71
2023/02/08 11:39:31;;;;;;;7.15;4.10;;;5.20;99.90;;;;;;6221122;23;20013;-71
2023/02/08 11:41:59;;;;;;;7.40;4.25;;;5.20;99.90;;;;;;6220745;23;20005;-71
2023/02/08 11:44:34;;;;;;;5.13;3.33;;;5.20;99.90;;;;;;6221341;23;20001;-71
2023/02/08 11:47:02;;;;;;;6.20;3.58;;;5.20;99.90;;;;;;6220498;23;20079;-71
2023/02/08 11:49:41;;;;;;;7.43;4.00;;;5.20;99.90;;;;;;6220534;23;20088;-72
2023/02/08 11:52:40;;;;;;;5.97;3.55;;;5.30;99.90;;;;;;6221758;23;20378;-71
2023/02/08 11:55:18;;;;;;;6.03;3.90;;;5.40;99.90;;;;;;6220087;23;19996;-70
2023/02/08 11:57:53;;;;;;;5.75;3.45;;;5.40;99.90;;;;;;6220267;23;19996;-70
2023/02/08 12:00:25;;;;;;;6.70;3.70;;;5.50;99.90;;;;;;6194878;23;20025;-71
2023/02/08 12:02:59;;;;;;;7.60;4.45;;;5.50;99.90;;;;;;6220185;23;20005;-73
2023/02/08 12:05:40;;;;;;;7.43;4.07;;;5.60;99.90;;;;;;6221489;23;20000;-71
2023/02/08 12:08:28;;;;;;;6.95;3.95;;;5.60;99.90;;;;;;6194294;23;20398;-71
2023/02/08 12:11:21;;;;;;;6.03;3.95;;;5.70;99.90;;;;;;6220257;23;20419;-70
2023/02/08 12:14:08;;;;;;;7.43;3.88;;;5.70;99.90;;;;;;6221519;23;19996;-71
2023/02/08 12:17:10;;;;;;;6.32;3.42;;;5.80;99.90;;;;;;6221800;23;20087;-70
2023/02/08 12:20:11;;;;;;;7.22;4.05;;;5.80;99.90;;;;;;6220224;23;20028;-74
2023/02/08 12:22:56;;;;;;;6.38;3.67;;;5.80;99.90;;;;;;6219680;23;20004;-70
2023/02/08 12:25:33;;;;;;;6.32;3.42;;;5.70;99.90;;;;;;6220344;23;20312;-71
2023/02/08 12:28:02;;;;;;;5.95;3.60;;;5.80;99.90;;;;;;6219682;23;20000;-72
2023/02/08 12:30:38;;;;;;;5.45;3.42;;;5.90;99.90;;;;;;6220438;23;20000;-72
2023/02/08 12:33:09;;;;;;;5.20;3.35;;;5.90;99.70;;;;;;6219427;23;20000;-72
2023/02/08 12:35:47;;;;;;;5.20;2.95;;;5.90;99.90;;;;;;6221240;23;20001;-71
2023/02/08 12:41:28;;;;;;;4.45;2.75;;;6.00;99.90;;;;;;6221423;23;20092;-72
2023/02/08 12:44:14;;;;;;;4.97;2.85;;;6.00;98.80;;;;;;6221529;23;20000;-72
2023/02/08 12:47:12;;;;;;;6.18;3.50;;;6.10;99.90;;;;;;6221250;23;20005;-72
2023/02/08 12:50:02;;;;;;;5.22;3.17;;;6.10;99.90;;;;;;6220991;23;20011;-72
2023/02/08 12:52:49;;;;;;;4.28;2.63;;;6.20;99.70;;;;;;6194544;23;20362;-71
2023/02/08 12:55:22;;;;;;;5.10;2.95;;;6.20;99.80;;;;;;6221474;23;20001;-71
2023/02/08 12:57:56;;;;;;;4.82;2.85;;;6.30;97.90;;;;;;6221248;23;20001;-72
2023/02/08 13:00:27;;;;;;;5.45;3.17;;;6.30;98.60;;;;;;6194843;23;20087;-72
2023/02/08 13:03:02;;;;;;;3.90;2.67;;;6.30;98.50;;;;;;6220989;23;20000;-72
2023/02/08 13:05:33;;;;;;;4.25;2.80;;;6.30;98.30;;;;;;6221284;23;20000;-72
2023/02/08 13:08:33;;;;;;;5.82;2.80;;;6.40;97.90;;;;;;6220886;23;20004;-72
2023/02/08 13:11:08;;;;;;;5.10;2.92;;;6.40;98.70;;;;;;6220854;23;20382;-71
2023/02/08 13:13:37;;;;;;;5.72;3.30;;;6.50;98.60;;;;;;6221390;23;20000;-72
2023/02/08 13:16:16;;;;;;;6.15;3.72;;;6.50;98.00;;;;;;6194781;23;20005;-72
2023/02/08 13:18:53;;;;;;;5.85;3.47;;;6.60;97.00;;;;;;6194458;23;20032;-71
2023/02/08 13:21:31;;;;;;;4.97;3.08;;;6.70;97.30;;;;;;6221038;23;20327;-72
2023/02/08 13:23:57;;;;;;;5.07;3.28;;;6.70;97.40;;;;;;6194195;23;20181;-72
2023/02/08 13:26:31;;;;;;;4.57;2.80;;;6.60;96.20;;;;;;6221302;23;20001;-72
2023/02/08 13:28:59;;;;;;;5.75;3.33;;;6.60;96.50;;;;;;6221121;23;20008;-72
2023/02/08 13:31:40;;;;;;;6.35;3.85;;;6.60;95.60;;;;;;6220825;23;20456;-72
2023/02/08 13:34:17;;;;;;;6.53;4.03;;;6.60;96.80;;;;;;6220239;23;19996;-72
2023/02/08 13:36:58;;;;;;;6.38;3.80;;;6.70;97.00;;;;;;6193715;23;20509;-72